createdAt,value
2022-11-03T00:01:14.664Z,14.35
2022-11-03T00:03:41.348Z,15.18
2022-11-03T00:06:08.281Z,12.90
2022-11-03T00:08:38.272Z,11.85
2022-11-03T00:11:10.251Z,15.13
2022-11-03T00:13:38.282Z,15.52
2022-11-03T00:16:05.711Z,14.95
2022-11-03T00:18:32.419Z,9.73
2022-11-03T00:21:01.969Z,16.13
2022-11-03T00:23:30.801Z,17.92
2022-11-03T00:26:12.378Z,14.77
2022-11-03T00:28:40.911Z,13.30
2022-11-03T00:31:11.153Z,13.15
2022-11-03T00:33:39.408Z,24.02
2022-11-03T00:36:07.161Z,9.77
2022-11-03T00:38:34.209Z,9.13
2022-11-03T00:41:03.594Z,7.25
2022-11-03T00:43:36.755Z,16.40
2022-11-03T00:46:05.411Z,12.25
2022-11-03T00:48:33.787Z,16.08
2022-11-03T00:51:11.727Z,12.50
2022-11-03T00:53:41.118Z,11.35
2022-11-03T00:56:12.087Z,14.50
2022-11-03T00:58:38.733Z,10.18
2022-11-03T01:01:08.269Z,15.07
2022-11-03T01:03:37.817Z,10.18
2022-11-03T01:06:23.063Z,10.68
2022-11-03T01:08:49.722Z,9.27
2022-11-03T01:11:34.802Z,12.50
2022-11-03T01:14:01.537Z,12.38
2022-11-03T01:16:29.502Z,13.77
2022-11-03T01:18:56.579Z,10.43
2022-11-03T01:21:23.911Z,10.95
2022-11-03T01:23:51.564Z,12.73
2022-11-03T01:26:18.299Z,12.38
2022-11-03T01:28:46.680Z,12.10
2022-11-03T01:31:17.939Z,12.05
2022-11-03T01:33:46.121Z,11.20
2022-11-03T01:36:14.510Z,12.23
2022-11-03T01:38:42.855Z,7.10
2022-11-03T01:41:16.611Z,8.57
2022-11-03T01:43:44.003Z,12.60
2022-11-03T01:46:11.672Z,9.32
2022-11-03T01:48:45.573Z,10.38
2022-11-03T01:51:16.386Z,13.27
2022-11-03T01:53:47.447Z,12.75
2022-11-03T01:56:16.692Z,10.00
2022-11-03T01:58:49.397Z,9.13
2022-11-03T02:01:16.844Z,13.88
2022-11-03T02:03:51.313Z,9.27
2022-11-03T02:06:23.363Z,10.50
2022-11-03T02:08:57.003Z,15.93
2022-11-03T02:11:39.066Z,8.93
2022-11-03T02:14:05.658Z,10.10
2022-11-03T02:16:33.205Z,10.60
2022-11-03T02:19:02.244Z,12.18
2022-11-03T02:21:39.993Z,7.45
2022-11-03T02:24:06.582Z,9.68
2022-11-03T02:26:33.285Z,9.52
2022-11-03T02:28:59.957Z,11.05
2022-11-03T02:31:36.723Z,9.70
2022-11-03T02:34:04.306Z,7.80
2022-11-03T02:36:56.221Z,4.88
2022-11-03T02:39:34.835Z,11.40
2022-11-03T02:42:03.711Z,11.43
2022-11-03T02:44:33.360Z,7.07
2022-11-03T02:47:04.006Z,6.05
2022-11-03T02:49:30.697Z,7.97
2022-11-03T02:52:05.682Z,7.25
2022-11-03T02:54:38.606Z,8.40
2022-11-03T02:57:15.912Z,13.60
2022-11-03T02:59:56.093Z,5.45
2022-11-03T03:02:34.278Z,10.45
2022-11-03T03:05:03.977Z,5.75
2022-11-03T03:07:37.246Z,7.38
2022-11-03T03:10:03.919Z,9.32
2022-11-03T03:12:33.843Z,10.25
2022-11-03T03:15:02.570Z,13.93
2022-11-03T03:17:44.300Z,10.05
2022-11-03T03:20:28.535Z,10.60
2022-11-03T03:23:05.101Z,18.20
2022-11-03T03:25:41.620Z,12.30
2022-11-03T03:28:15.820Z,8.88
2022-11-03T03:30:48.923Z,8.68
2022-11-03T03:33:17.933Z,10.55
2022-11-03T03:35:48.924Z,10.43
2022-11-03T03:38:23.568Z,11.02
2022-11-03T03:40:54.950Z,12.80
2022-11-03T03:43:28.177Z,16.35
2022-11-03T03:45:58.739Z,11.98
2022-11-03T03:48:25.342Z,13.55
2022-11-03T03:50:52.742Z,17.77
2022-11-03T03:53:19.883Z,12.20
2022-11-03T03:55:50.401Z,12.95
2022-11-03T03:58:17.301Z,13.32
2022-11-03T04:00:44.744Z,12.88
2022-11-03T04:03:17.705Z,12.75
2022-11-03T04:05:45.387Z,8.77
2022-11-03T04:08:13.505Z,10.80
2022-11-03T04:10:41.289Z,12.73
2022-11-03T04:13:24.019Z,7.88
2022-11-03T04:15:52.080Z,11.10
2022-11-03T04:18:35.582Z,10.50
2022-11-03T04:21:17.634Z,8.88
2022-11-03T04:23:44.447Z,10.88
2022-11-03T04:26:15.283Z,17.13
2022-11-03T04:28:42.525Z,11.40
2022-11-03T04:31:18.314Z,8.38
2022-11-03T04:33:45.993Z,12.20
2022-11-03T04:36:18.182Z,14.07
2022-11-03T04:38:45.573Z,9.85
2022-11-03T04:41:18.039Z,10.32
2022-11-03T04:43:46.617Z,6.32
2022-11-03T04:46:16.975Z,8.38
2022-11-03T04:48:44.318Z,10.68
2022-11-03T04:51:16.353Z,13.10
2022-11-03T04:53:54.363Z,14.00
2022-11-03T04:56:24.472Z,8.43
2022-11-03T04:58:52.402Z,15.27
2022-11-03T05:01:24.261Z,12.73
2022-11-03T05:03:54.353Z,8.77
2022-11-03T05:06:26.877Z,19.05
2022-11-03T05:08:58.407Z,9.43
2022-11-03T05:11:34.810Z,12.00
2022-11-03T05:16:30.639Z,10.85
2022-11-03T05:18:57.595Z,8.15
2022-11-03T05:21:26.741Z,8.45
2022-11-03T05:23:58.213Z,8.90
2022-11-03T05:26:30.121Z,8.60
2022-11-03T05:29:00.029Z,8.60
2022-11-03T05:31:29.682Z,13.30
2022-11-03T05:34:00.045Z,9.68
2022-11-03T05:36:29.948Z,10.68
2022-11-03T05:39:06.039Z,12.77
2022-11-03T05:41:32.746Z,7.63
2022-11-03T05:44:02.856Z,7.35
2022-11-03T05:46:31.694Z,17.00
2022-11-03T05:49:01.064Z,7.40
2022-11-03T05:51:34.328Z,10.60
2022-11-03T05:54:04.420Z,18.13
2022-11-03T05:56:32.957Z,14.32
2022-11-03T05:59:00.755Z,12.15
2022-11-03T06:01:34.432Z,13.55
2022-11-03T06:04:15.877Z,10.98
2022-11-03T06:06:42.647Z,17.73
2022-11-03T06:09:14.049Z,49.83
2022-11-03T06:11:41.723Z,51.53
2022-11-03T06:14:23.961Z,47.80
2022-11-03T06:17:02.119Z,45.10
2022-11-03T06:19:35.698Z,31.65
2022-11-03T06:22:15.523Z,31.25
2022-11-03T06:24:42.462Z,19.38
2022-11-03T06:27:15.191Z,25.55
2022-11-03T06:29:46.841Z,22.67
2022-11-03T06:32:13.789Z,19.20
2022-11-03T06:34:46.069Z,18.80
2022-11-03T06:37:25.814Z,15.05
2022-11-03T06:39:59.977Z,11.63
2022-11-03T06:42:31.931Z,14.38
2022-11-03T06:44:59.142Z,10.55
2022-11-03T06:47:27.887Z,15.68
2022-11-03T06:49:58.240Z,12.70
2022-11-03T06:52:45.811Z,13.43
2022-11-03T06:55:15.710Z,14.18
2022-11-03T06:57:47.195Z,14.07
2022-11-03T07:00:33.095Z,18.33
2022-11-03T07:03:09.314Z,10.13
2022-11-03T07:05:36.892Z,12.75
2022-11-03T07:08:17.353Z,20.27
2022-11-03T07:10:44.210Z,9.68
2022-11-03T07:13:15.785Z,18.23
2022-11-03T07:15:44.743Z,19.33
2022-11-03T07:18:29.428Z,23.15
2022-11-03T07:20:57.889Z,15.48
2022-11-03T07:23:29.306Z,14.68
2022-11-03T07:26:00.406Z,16.77
2022-11-03T07:28:33.232Z,15.60
2022-11-03T07:31:16.558Z,17.02
2022-11-03T07:33:44.034Z,25.33
2022-11-03T07:36:16.831Z,16.48
2022-11-03T07:38:46.217Z,18.05
2022-11-03T07:41:19.567Z,17.38
2022-11-03T07:43:58.033Z,16.17
2022-11-03T07:46:26.361Z,17.02
2022-11-03T07:49:03.252Z,16.63
2022-11-03T07:51:33.589Z,20.25
2022-11-03T07:54:16.779Z,14.52
2022-11-03T07:56:47.390Z,13.32
2022-11-03T07:59:19.008Z,16.90
2022-11-03T08:01:49.353Z,17.00
2022-11-03T08:04:21.665Z,16.02
2022-11-03T08:06:48.564Z,14.25
2022-11-03T08:09:15.894Z,21.00
2022-11-03T08:11:42.545Z,13.82
2022-11-03T08:14:10.379Z,17.30
2022-11-03T08:16:37.544Z,11.77
2022-11-03T08:19:04.191Z,14.93
2022-11-03T08:21:30.892Z,17.42
2022-11-03T08:23:57.562Z,11.10
2022-11-03T08:26:24.376Z,13.52
2022-11-03T08:28:50.974Z,9.80
2022-11-03T08:31:17.640Z,8.43
2022-11-03T08:33:44.446Z,7.00
2022-11-03T08:36:11.833Z,11.02
2022-11-03T08:38:41.710Z,11.30
2022-11-03T08:41:08.444Z,13.65
2022-11-03T08:43:35.132Z,13.95
2022-11-03T08:46:08.404Z,12.77
2022-11-03T08:48:40.274Z,7.72
2022-11-03T08:51:08.453Z,11.13
2022-11-03T08:53:35.425Z,10.68
2022-11-03T08:56:02.148Z,9.77
2022-11-03T08:58:28.951Z,12.00
2022-11-03T09:00:55.535Z,8.55
2022-11-03T09:03:22.362Z,7.82
2022-11-03T09:05:49.107Z,8.65
2022-11-03T09:11:02.414Z,13.15
2022-11-03T09:13:29.002Z,8.38
2022-11-03T09:15:55.619Z,8.00
2022-11-03T09:18:22.769Z,15.63
2022-11-03T09:20:49.422Z,11.05
2022-11-03T09:23:16.019Z,11.88
2022-11-03T09:25:42.650Z,6.38
2022-11-03T09:28:09.685Z,8.45
2022-11-03T09:30:36.701Z,7.35
2022-11-03T09:33:03.949Z,10.77
2022-11-03T09:35:30.658Z,9.77
2022-11-03T09:37:57.687Z,10.63
2022-11-03T09:40:25.391Z,10.63
2022-11-03T09:42:52.369Z,10.98
2022-11-03T09:45:18.975Z,11.25
2022-11-03T09:47:47.309Z,15.38
2022-11-03T09:50:17.177Z,7.22
2022-11-03T09:52:48.761Z,10.15
2022-11-03T09:55:23.206Z,8.32
2022-11-03T09:57:52.934Z,7.53
2022-11-03T10:00:22.462Z,8.15
2022-11-03T10:02:49.790Z,9.43
2022-11-03T10:05:22.819Z,7.38
2022-11-03T10:07:50.629Z,8.18
2022-11-03T10:10:19.819Z,11.23
2022-11-03T10:12:49.007Z,10.48
2022-11-03T10:15:17.266Z,24.00
2022-11-03T10:17:45.258Z,10.27
2022-11-03T10:20:14.643Z,9.23
2022-11-03T10:22:43.520Z,7.63
2022-11-03T10:25:33.479Z,8.77
2022-11-03T10:28:15.532Z,6.82
2022-11-03T10:31:10.078Z,5.93
2022-11-03T10:33:38.813Z,6.78
2022-11-03T10:36:20.703Z,7.30
2022-11-03T10:38:48.141Z,7.60
2022-11-03T10:41:18.236Z,11.02
2022-11-03T10:44:01.685Z,16.25
2022-11-03T10:46:49.261Z,8.30
2022-11-03T10:49:18.512Z,13.80
2022-11-03T10:51:48.311Z,13.43
2022-11-03T10:54:17.654Z,9.77
2022-11-03T10:56:46.200Z,11.52
2022-11-03T10:59:19.072Z,6.45
2022-11-03T11:01:46.307Z,10.77
2022-11-03T11:04:17.497Z,9.32
2022-11-03T11:06:44.825Z,12.07
2022-11-03T11:09:14.540Z,9.70
2022-11-03T11:12:01.032Z,7.13
2022-11-03T11:14:28.292Z,15.43
2022-11-03T11:16:57.106Z,10.27
2022-11-03T11:19:25.788Z,14.00
2022-11-03T11:21:53.749Z,8.48
2022-11-03T11:24:55.528Z,12.65
2022-11-03T11:27:47.175Z,9.27
2022-11-03T11:30:53.650Z,10.27
2022-11-03T11:33:26.057Z,20.40
2022-11-03T11:35:58.762Z,7.22
2022-11-03T11:38:56.145Z,10.15
2022-11-03T11:41:58.029Z,16.02
2022-11-03T11:44:43.916Z,10.93
2022-11-03T11:47:28.221Z,13.05
2022-11-03T11:50:11.518Z,14.18
2022-11-03T11:52:43.332Z,11.35
2022-11-03T11:55:25.215Z,12.20
2022-11-03T11:57:53.255Z,15.15
2022-11-03T12:00:24.785Z,8.07
2022-11-03T12:02:53.310Z,10.63
2022-11-03T12:05:22.878Z,10.25
2022-11-03T12:07:49.938Z,12.30
2022-11-03T12:10:20.144Z,10.45
2022-11-03T12:12:46.936Z,11.93
2022-11-03T12:15:44.210Z,7.25
2022-11-03T12:18:32.800Z,15.48
2022-11-03T12:21:04.016Z,8.38
2022-11-03T12:23:46.535Z,14.15
2022-11-03T12:26:19.272Z,7.32
2022-11-03T12:28:45.925Z,12.55
2022-11-03T12:31:12.788Z,19.25
2022-11-03T12:33:39.648Z,11.75
2022-11-03T12:36:07.185Z,10.05
2022-11-03T12:38:33.901Z,8.60
2022-11-03T12:41:15.680Z,8.23
2022-11-03T12:43:42.332Z,17.65
2022-11-03T12:46:08.999Z,8.70
2022-11-03T12:48:35.563Z,11.40
2022-11-03T12:51:02.177Z,9.10
2022-11-03T12:53:28.771Z,10.60
2022-11-03T12:55:55.391Z,15.88
2022-11-03T12:58:22.026Z,11.13
2022-11-03T13:00:53.828Z,12.63
2022-11-03T13:03:21.857Z,12.98
2022-11-03T13:05:49.283Z,7.65
2022-11-03T13:08:15.913Z,9.98
2022-11-03T13:10:42.570Z,10.45
2022-11-03T13:13:09.671Z,16.45
2022-11-03T13:15:37.581Z,16.13
2022-11-03T13:18:14.061Z,7.00
2022-11-03T13:20:43.002Z,10.35
2022-11-03T13:23:09.858Z,13.30
2022-11-03T13:25:39.731Z,10.38
2022-11-03T13:28:06.416Z,9.75
2022-11-03T13:30:33.779Z,12.40
2022-11-03T13:33:00.415Z,8.15
2022-11-03T13:35:28.492Z,14.20
2022-11-03T13:37:55.200Z,11.55
2022-11-03T13:45:35.557Z,9.20
2022-11-03T14:01:24.102Z,12.50
2022-11-03T14:09:04.091Z,8.93
2022-11-03T14:11:45.940Z,11.85
2022-11-03T14:14:12.541Z,12.82
2022-11-03T14:16:39.233Z,11.63
2022-11-03T14:19:08.909Z,11.65
2022-11-03T14:21:37.521Z,9.60
2022-11-03T14:24:05.842Z,8.40
2022-11-03T14:26:42.221Z,20.85
2022-11-03T14:29:10.272Z,7.70
2022-11-03T14:31:36.995Z,14.93
2022-11-03T14:34:03.659Z,9.63
2022-11-03T14:36:30.280Z,7.78
2022-11-03T14:38:56.862Z,10.65
2022-11-03T14:41:38.746Z,13.80
2022-11-03T14:44:06.152Z,16.05
2022-11-03T14:46:32.945Z,14.90
2022-11-03T14:49:01.726Z,13.27
2022-11-03T14:51:29.211Z,15.05
2022-11-03T14:53:57.579Z,15.27
2022-11-03T14:56:24.977Z,13.23
2022-11-03T14:58:52.046Z,10.50
2022-11-03T15:01:21.001Z,9.32
2022-11-03T15:03:47.734Z,10.77
2022-11-03T15:06:14.484Z,10.05
2022-11-03T15:08:41.239Z,15.45
2022-11-03T15:11:09.969Z,15.10
2022-11-03T15:13:44.000Z,12.18
2022-11-03T15:16:13.823Z,13.82
2022-11-03T15:18:41.436Z,17.13
2022-11-03T15:21:08.068Z,17.02
2022-11-03T15:26:21.245Z,13.13
2022-11-03T15:28:47.888Z,10.85
2022-11-03T15:31:14.905Z,10.70
2022-11-03T15:33:44.733Z,11.30
2022-11-03T15:36:11.913Z,11.07
2022-11-03T15:38:38.712Z,12.05
2022-11-03T15:41:20.928Z,14.73
2022-11-03T15:43:49.439Z,13.85
2022-11-03T15:46:20.854Z,10.32
2022-11-03T15:48:49.129Z,11.38
2022-11-03T15:51:15.993Z,15.57
2022-11-03T15:53:43.850Z,9.68
2022-11-03T15:56:10.960Z,18.05
2022-11-03T15:58:38.158Z,16.50
2022-11-03T16:01:05.435Z,15.07
2022-11-03T16:03:32.680Z,19.50
2022-11-03T16:05:59.641Z,14.65
2022-11-03T16:08:26.579Z,10.73
2022-11-03T16:10:57.695Z,20.75
2022-11-03T16:13:25.608Z,10.90
2022-11-03T16:15:54.540Z,19.45
2022-11-03T16:18:21.421Z,10.77
2022-11-03T16:20:48.215Z,11.20
2022-11-03T16:23:14.863Z,12.57
2022-11-03T16:25:41.610Z,10.60
2022-11-03T16:28:08.500Z,15.48
2022-11-03T16:30:35.493Z,19.85
2022-11-03T16:33:02.214Z,18.25
2022-11-03T16:35:29.760Z,17.17
2022-11-03T16:37:56.473Z,12.60
2022-11-03T16:40:23.720Z,12.77
2022-11-03T16:42:50.440Z,12.35
2022-11-03T16:45:22.405Z,15.25
2022-11-03T16:47:50.817Z,14.32
2022-11-03T16:50:18.725Z,11.25
2022-11-03T16:52:47.255Z,13.93
2022-11-03T16:55:15.521Z,11.40
2022-11-03T16:57:42.591Z,11.82
2022-11-03T17:00:13.300Z,15.90
2022-11-03T17:02:40.012Z,9.43
2022-11-03T17:05:07.342Z,11.35
2022-11-03T17:07:33.968Z,10.80
2022-11-03T17:10:00.813Z,8.75
2022-11-03T17:12:27.455Z,8.50
2022-11-03T17:14:56.659Z,8.07
2022-11-03T17:17:23.698Z,12.27
2022-11-03T17:19:50.617Z,11.73
2022-11-03T17:22:17.258Z,9.43
2022-11-03T17:24:44.102Z,19.65
2022-11-03T17:27:28.516Z,14.98
2022-11-03T17:30:00.292Z,11.75
2022-11-03T17:32:31.604Z,7.53
2022-11-03T17:34:58.969Z,7.40
2022-11-03T17:37:26.758Z,14.13
2022-11-03T17:39:54.155Z,17.15
2022-11-03T17:42:24.907Z,14.48
2022-11-03T17:44:55.507Z,9.73
2022-11-03T17:47:24.146Z,12.57
2022-11-03T17:49:51.168Z,8.25
2022-11-03T17:52:25.128Z,9.40
2022-11-03T17:54:57.528Z,10.98
2022-11-03T17:57:25.723Z,17.80
2022-11-03T17:59:55.379Z,10.40
2022-11-03T18:02:25.755Z,13.98
2022-11-03T18:05:03.159Z,11.88
2022-11-03T18:07:30.042Z,10.00
2022-11-03T18:09:56.693Z,11.25
2022-11-03T18:12:44.867Z,13.23
2022-11-03T18:15:15.795Z,12.68
2022-11-03T18:17:42.517Z,9.98
2022-11-03T18:20:21.996Z,23.00
2022-11-03T18:22:48.664Z,17.00
2022-11-03T18:25:17.681Z,18.02
2022-11-03T18:27:44.753Z,14.35
2022-11-03T18:30:13.767Z,16.90
2022-11-03T18:32:41.368Z,16.45
2022-11-03T18:35:17.162Z,16.40
2022-11-03T18:37:45.421Z,14.38
2022-11-03T18:40:13.787Z,17.92
2022-11-03T18:42:41.007Z,12.70
2022-11-03T18:45:14.017Z,10.23
2022-11-03T18:47:40.800Z,15.93
2022-11-03T18:50:08.651Z,13.88
2022-11-03T18:52:40.764Z,16.83
2022-11-03T18:55:12.130Z,14.13
2022-11-03T18:57:39.714Z,18.70
2022-11-03T19:00:18.897Z,14.32
2022-11-03T19:02:47.491Z,22.60
2022-11-03T19:05:15.941Z,16.65
2022-11-03T19:07:45.369Z,10.95
2022-11-03T19:10:16.009Z,8.68
2022-11-03T19:12:44.410Z,14.88
2022-11-03T19:15:26.784Z,10.05
2022-11-03T19:17:57.045Z,8.23
2022-11-03T19:20:25.472Z,11.20
2022-11-03T19:22:52.811Z,8.00
2022-11-03T19:25:22.673Z,7.45
2022-11-03T19:27:49.665Z,11.45
2022-11-03T19:30:18.695Z,11.30
2022-11-03T19:32:48.904Z,10.95
2022-11-03T19:35:30.033Z,9.95
2022-11-03T19:38:10.331Z,6.95
2022-11-03T19:40:39.158Z,6.95
2022-11-03T19:43:09.548Z,8.15
2022-11-03T19:45:36.215Z,9.75
2022-11-03T19:48:23.803Z,8.57
2022-11-03T19:50:51.720Z,9.02
2022-11-03T19:53:22.208Z,10.27
2022-11-03T19:55:49.765Z,9.20
2022-11-03T19:58:19.935Z,11.02
2022-11-03T20:00:47.989Z,5.85
2022-11-03T20:03:15.034Z,8.80
2022-11-03T20:05:48.951Z,8.02
2022-11-03T20:08:19.304Z,8.30
2022-11-03T20:10:48.207Z,10.30
2022-11-03T20:13:17.645Z,10.93
2022-11-03T20:15:44.322Z,8.95
2022-11-03T20:18:13.066Z,10.02
2022-11-03T20:20:41.440Z,6.85
2022-11-03T20:23:25.692Z,6.60
2022-11-03T20:25:52.663Z,6.22
2022-11-03T20:28:24.965Z,10.20
2022-11-03T20:30:52.813Z,8.55
2022-11-03T20:33:21.133Z,9.25
2022-11-03T20:35:49.909Z,7.07
2022-11-03T20:38:19.361Z,14.50
2022-11-03T20:40:48.010Z,7.45
2022-11-03T20:43:26.543Z,7.30
2022-11-03T20:45:54.742Z,10.38
2022-11-03T20:48:21.951Z,9.23
2022-11-03T20:50:48.838Z,8.05
2022-11-03T20:53:18.260Z,9.02
2022-11-03T20:55:46.151Z,8.20
2022-11-03T20:58:17.827Z,10.10
2022-11-03T21:00:46.384Z,6.97
2022-11-03T21:03:37.617Z,4.22
2022-11-03T21:06:16.399Z,6.57
2022-11-03T21:08:44.740Z,6.00
2022-11-03T21:11:30.711Z,10.40
2022-11-03T21:14:01.302Z,13.98
2022-11-03T21:16:45.235Z,7.88
2022-11-03T21:19:30.496Z,9.63
2022-11-03T21:21:57.123Z,6.80
2022-11-03T21:24:23.762Z,7.57
2022-11-03T21:26:50.461Z,5.60
2022-11-03T21:29:32.969Z,8.48
2022-11-03T21:32:03.884Z,6.53
2022-11-03T21:34:30.608Z,10.30
2022-11-03T21:36:57.242Z,6.95
2022-11-03T21:39:23.901Z,5.80
2022-11-03T21:42:06.002Z,10.15
2022-11-03T21:44:32.707Z,9.18
2022-11-03T21:46:59.265Z,8.00
2022-11-03T21:49:41.174Z,7.45
2022-11-03T21:52:08.202Z,9.48
2022-11-03T21:54:34.848Z,8.70
2022-11-03T21:57:01.489Z,5.57
2022-11-03T21:59:28.118Z,7.55
2022-11-03T22:01:55.296Z,7.68
2022-11-03T22:04:23.116Z,5.53
2022-11-03T22:06:50.495Z,10.23
2022-11-03T22:09:17.783Z,7.30
2022-11-03T22:11:44.492Z,5.55
2022-11-03T22:14:12.821Z,10.93
2022-11-03T22:16:40.894Z,6.40
2022-11-03T22:19:28.787Z,9.18
2022-11-03T22:22:10.882Z,8.35
2022-11-03T22:24:58.187Z,14.10
2022-11-03T22:27:25.862Z,10.38
2022-11-03T22:30:08.043Z,12.48
2022-11-03T22:32:35.551Z,12.80
2022-11-03T22:35:18.057Z,12.82
2022-11-03T22:37:44.822Z,9.68
2022-11-03T22:40:26.828Z,11.25
2022-11-03T22:43:08.981Z,14.30
2022-11-03T22:45:53.238Z,11.13
2022-11-03T22:48:23.226Z,11.45
2022-11-03T22:51:07.667Z,12.80
2022-11-03T22:53:51.187Z,9.77
2022-11-03T22:56:18.853Z,17.13
2022-11-03T22:58:45.655Z,12.15
2022-11-03T23:01:16.762Z,13.15
2022-11-03T23:03:44.974Z,9.65
2022-11-03T23:06:14.766Z,11.60
2022-11-03T23:08:42.835Z,13.30
2022-11-03T23:11:15.988Z,12.05
2022-11-03T23:13:44.548Z,12.93
2022-11-03T23:16:16.480Z,13.65
2022-11-03T23:18:58.758Z,14.20
2022-11-03T23:21:25.882Z,13.98
2022-11-03T23:24:07.734Z,14.70
2022-11-03T23:26:34.545Z,11.07
2022-11-03T23:29:01.216Z,17.27
2022-11-03T23:31:27.842Z,10.75
2022-11-03T23:33:55.067Z,11.35
2022-11-03T23:36:26.049Z,18.63
2022-11-03T23:38:52.685Z,13.18
2022-11-03T23:41:19.952Z,12.20
2022-11-03T23:43:47.190Z,12.07
2022-11-03T23:46:31.482Z,13.23
2022-11-03T23:49:01.359Z,10.35
2022-11-03T23:51:30.116Z,10.90
2022-11-03T23:53:58.404Z,10.40
2022-11-03T23:56:43.295Z,8.38
2022-11-03T23:59:11.157Z,13.13
